createdAt,value
2023-04-16T00:02:36.000Z,31.8
2023-04-16T00:07:35.000Z,34.9
2023-04-16T00:12:36.000Z,37.21
2023-04-16T00:17:35.000Z,37.12
2023-04-16T00:22:36.000Z,31.74
2023-04-16T00:27:35.000Z,31.58
2023-04-16T00:32:35.000Z,33.8
2023-04-16T00:37:35.000Z,44.85
2023-04-16T00:42:35.000Z,33.93
2023-04-16T00:47:35.000Z,32.81
2023-04-16T00:52:35.000Z,30.97
2023-04-16T00:57:35.000Z,31.64
2023-04-16T01:02:35.000Z,30.15
2023-04-16T01:07:36.000Z,33.67
2023-04-16T01:12:35.000Z,32.58
2023-04-16T01:17:36.000Z,32.58
2023-04-16T01:22:35.000Z,29.4
2023-04-16T01:27:35.000Z,30.18
2023-04-16T01:32:35.000Z,29.22
2023-04-16T01:37:36.000Z,28.82
2023-04-16T01:42:35.000Z,27.93
2023-04-16T01:47:36.000Z,26.13
2023-04-16T01:52:36.000Z,24.7
2023-04-16T01:57:36.000Z,25.33
2023-04-16T02:02:36.000Z,24.93
2023-04-16T02:07:36.000Z,24.97
2023-04-16T02:12:35.000Z,24.97
2023-04-16T02:17:36.000Z,24.45
2023-04-16T02:22:35.000Z,24.23
2023-04-16T02:27:36.000Z,25.18
2023-04-16T02:32:36.000Z,25.18
2023-04-16T02:37:36.000Z,26.55
2023-04-16T02:42:36.000Z,26.77
2023-04-16T02:47:35.000Z,25.37
2023-04-16T02:52:36.000Z,24.09
2023-04-16T02:57:36.000Z,22.27
2023-04-16T03:02:36.000Z,24.33
2023-04-16T03:07:35.000Z,25.36
2023-04-16T03:12:36.000Z,25.24
2023-04-16T03:17:36.000Z,23.09
2023-04-16T03:22:36.000Z,24.82
2023-04-16T03:27:36.000Z,28.08
2023-04-16T03:32:36.000Z,26.02
2023-04-16T03:37:36.000Z,22.24
2023-04-16T03:42:35.000Z,24.6
2023-04-16T03:47:35.000Z,24.6
2023-04-16T03:52:35.000Z,26.96
2023-04-16T03:57:35.000Z,24.83
2023-04-16T04:02:35.000Z,26.38
2023-04-16T04:07:36.000Z,24.68
2023-04-16T04:12:35.000Z,24.13
2023-04-16T04:17:36.000Z,28.06
2023-04-16T04:22:35.000Z,26.9
2023-04-16T04:27:36.000Z,34.94
2023-04-16T04:32:35.000Z,31.43
2023-04-16T04:37:35.000Z,30.13
2023-04-16T04:42:35.000Z,26.24
2023-04-16T04:47:36.000Z,25.73
2023-04-16T04:52:35.000Z,25.2
2023-04-16T04:57:36.000Z,26.2
2023-04-16T05:02:36.000Z,26.2
2023-04-16T05:07:36.000Z,27.89
2023-04-16T05:12:35.000Z,23.46
2023-04-16T05:17:36.000Z,11.89
2023-04-16T05:22:35.000Z,10.14
2023-04-16T05:27:35.000Z,10.12
2023-04-16T05:32:36.000Z,9.23
2023-04-16T05:37:35.000Z,13.09
2023-04-16T05:42:36.000Z,9.01
2023-04-16T05:47:35.000Z,9.32
2023-04-16T05:52:36.000Z,9.55
2023-04-16T05:57:35.000Z,8.06
2023-04-16T06:02:36.000Z,10.4
2023-04-16T06:07:35.000Z,7.83
2023-04-16T06:12:35.000Z,7.83
2023-04-16T06:17:36.000Z,19.57
2023-04-16T06:22:36.000Z,7.74
2023-04-16T06:27:36.000Z,7.03
2023-04-16T06:32:36.000Z,7.7
2023-04-16T06:37:36.000Z,7.31
2023-04-16T06:42:36.000Z,8.02
2023-04-16T06:47:36.000Z,7.33
2023-04-16T06:52:36.000Z,6.89
2023-04-16T06:57:36.000Z,7.18
2023-04-16T07:02:36.000Z,6.81
2023-04-16T07:07:36.000Z,5.94
2023-04-16T07:12:36.000Z,5.79
2023-04-16T07:17:36.000Z,5.27
2023-04-16T07:22:35.000Z,5.27
2023-04-16T07:27:36.000Z,5.63
2023-04-16T07:32:36.000Z,5.69
2023-04-16T07:37:35.000Z,6
2023-04-16T07:42:36.000Z,5.67
2023-04-16T07:47:36.000Z,5.92
2023-04-16T07:52:36.000Z,5.74
2023-04-16T07:57:36.000Z,6.47
2023-04-16T08:02:35.000Z,6.23
2023-04-16T08:07:36.000Z,7.56
2023-04-16T08:12:36.000Z,8.41
2023-04-16T08:17:36.000Z,8.09
2023-04-16T08:22:36.000Z,9.09
2023-04-16T08:27:35.000Z,10.04
2023-04-16T08:32:36.000Z,10.04
2023-04-16T08:37:36.000Z,10.01
2023-04-16T08:42:36.000Z,10.95
2023-04-16T08:47:36.000Z,10.47
2023-04-16T08:52:35.000Z,9.1
2023-04-16T08:57:36.000Z,8.17
2023-04-16T09:02:36.000Z,7.09
2023-04-16T09:07:35.000Z,6.25
2023-04-16T09:12:36.000Z,6.58
2023-04-16T09:17:36.000Z,6.4
2023-04-16T09:22:35.000Z,6.24
2023-04-16T09:27:36.000Z,6.61
2023-04-16T09:32:35.000Z,7.02
2023-04-16T09:37:37.000Z,6.91
2023-04-16T09:42:35.000Z,6.81
2023-04-16T09:47:35.000Z,6.81
2023-04-16T09:52:35.000Z,6.39
2023-04-16T09:57:35.000Z,6.5
2023-04-16T10:02:36.000Z,5.83
2023-04-16T10:07:35.000Z,5.62
2023-04-16T10:12:35.000Z,7.16
2023-04-16T10:17:46.000Z,7.1
2023-04-16T10:22:35.000Z,6.58
2023-04-16T10:27:35.000Z,6.77
2023-04-16T10:32:36.000Z,6.77
2023-04-16T10:37:36.000Z,7.54
2023-04-16T10:42:35.000Z,7.82
2023-04-16T10:47:35.000Z,7.87
2023-04-16T10:52:35.000Z,8.34
2023-04-16T10:57:35.000Z,8.34
2023-04-16T11:02:38.000Z,8.5
2023-04-16T11:07:35.000Z,8.96
2023-04-16T11:12:35.000Z,10.01
2023-04-16T11:17:36.000Z,12.48
2023-04-16T11:22:36.000Z,9.91
2023-04-16T11:27:35.000Z,10.89
2023-04-16T11:32:36.000Z,10.09
2023-04-16T11:37:36.000Z,10.72
2023-04-16T11:42:36.000Z,10.64
2023-04-16T11:47:36.000Z,11.07
2023-04-16T11:52:35.000Z,11.06
2023-04-16T11:57:35.000Z,10.17
2023-04-16T12:02:36.000Z,10.37
2023-04-16T12:07:36.000Z,10.37
2023-04-16T12:12:36.000Z,10.28
2023-04-16T12:17:35.000Z,11.4
2023-04-16T12:22:35.000Z,11.35
2023-04-16T12:27:36.000Z,9.79
2023-04-16T12:32:36.000Z,9.95
2023-04-16T12:37:35.000Z,9.29
2023-04-16T12:42:35.000Z,9.58
2023-04-16T12:47:36.000Z,10
2023-04-16T12:52:36.000Z,10.01
2023-04-16T12:57:35.000Z,10.43
2023-04-16T13:02:35.000Z,12.31
2023-04-16T13:07:36.000Z,12.76
2023-04-16T13:12:36.000Z,13.08
2023-04-16T13:17:35.000Z,13.08
2023-04-16T13:22:35.000Z,12.46
2023-04-16T13:27:36.000Z,12.22
2023-04-16T13:32:35.000Z,12.57
2023-04-16T13:37:36.000Z,13.25
2023-04-16T13:42:36.000Z,12.98
2023-04-16T13:47:35.000Z,12.44
2023-04-16T13:52:35.000Z,11.62
2023-04-16T13:57:35.000Z,13.95
2023-04-16T14:02:36.000Z,15.63
2023-04-16T14:07:35.000Z,14.66
2023-04-16T14:12:36.000Z,13.69
2023-04-16T14:17:35.000Z,13.57
2023-04-16T14:22:36.000Z,13.31
2023-04-16T14:27:35.000Z,13.31
2023-04-16T14:32:36.000Z,13.18
2023-04-16T14:37:36.000Z,14.92
2023-04-16T14:42:36.000Z,16.19
2023-04-16T14:47:36.000Z,14.66
2023-04-16T14:52:37.000Z,13.43
2023-04-16T14:57:36.000Z,13.06
2023-04-16T15:02:36.000Z,12.52
2023-04-16T15:07:36.000Z,14.02
2023-04-16T15:12:35.000Z,14.64
2023-04-16T15:17:35.000Z,13.59
2023-04-16T15:22:36.000Z,16.8
2023-04-16T15:27:36.000Z,26.39
2023-04-16T15:32:36.000Z,21.64
2023-04-16T15:37:36.000Z,17.76
2023-04-16T15:42:35.000Z,17.76
2023-04-16T15:47:36.000Z,18.79
2023-04-16T15:52:35.000Z,19.4
2023-04-16T15:57:35.000Z,19.62
2023-04-16T16:02:36.000Z,14.38
2023-04-16T16:07:35.000Z,13.82
2023-04-16T16:12:36.000Z,16.37
2023-04-16T16:17:36.000Z,18.61
2023-04-16T16:22:35.000Z,21.23
2023-04-16T16:27:35.000Z,21.71
2023-04-16T16:32:35.000Z,24.79
2023-04-16T16:37:35.000Z,24.43
2023-04-16T16:42:36.000Z,20.22
2023-04-16T16:47:35.000Z,20.22
2023-04-16T16:52:36.000Z,17.89
2023-04-16T16:57:36.000Z,20.62
2023-04-16T17:02:36.000Z,23.04
2023-04-16T17:07:36.000Z,27.17
2023-04-16T17:12:36.000Z,28.67
2023-04-16T17:17:35.000Z,28.56
2023-04-16T17:22:35.000Z,29.76
2023-04-16T17:27:35.000Z,31.09
2023-04-16T17:32:36.000Z,31.65
2023-04-16T17:37:35.000Z,31.18
2023-04-16T17:42:35.000Z,30.04
2023-04-16T17:47:35.000Z,29.56
2023-04-16T17:52:36.000Z,33.82
2023-04-16T17:57:36.000Z,37.13
2023-04-16T18:02:36.000Z,37.13
2023-04-16T18:07:35.000Z,32.94
2023-04-16T18:12:36.000Z,30.02
2023-04-16T18:17:35.000Z,25.89
2023-04-16T18:22:37.000Z,25.73
2023-04-16T18:27:36.000Z,28.59
2023-04-16T18:37:36.000Z,29.12
2023-04-16T18:42:35.000Z,27.32
2023-04-16T18:47:36.000Z,26.19
2023-04-16T18:52:35.000Z,25.24
2023-04-16T18:57:35.000Z,24.13
2023-04-16T19:02:36.000Z,23.19
2023-04-16T19:07:36.000Z,23.62
2023-04-16T19:12:36.000Z,23.62
2023-04-16T19:17:36.000Z,23.45
2023-04-16T19:22:36.000Z,22.2
2023-04-16T19:27:35.000Z,21.52
2023-04-16T19:32:36.000Z,21.33
2023-04-16T19:37:35.000Z,22.01
2023-04-16T19:42:35.000Z,21.64
2023-04-16T19:47:36.000Z,22.16
2023-04-16T19:52:36.000Z,21.64
2023-04-16T19:57:36.000Z,20.55
2023-04-16T20:02:36.000Z,23.91
2023-04-16T20:07:36.000Z,23.24
2023-04-16T20:12:35.000Z,23.05
2023-04-16T20:17:36.000Z,21.02
2023-04-16T20:22:35.000Z,22.28
2023-04-16T20:27:35.000Z,22.28
2023-04-16T20:32:38.000Z,22.52
2023-04-16T20:37:35.000Z,20.28
2023-04-16T20:42:36.000Z,21.23
2023-04-16T20:47:35.000Z,21.06
2023-04-16T20:52:35.000Z,21.33
2023-04-16T20:57:36.000Z,21.05
2023-04-16T21:02:36.000Z,22.43
2023-04-16T21:07:36.000Z,22.01
2023-04-16T21:12:36.000Z,21.12
2023-04-16T21:17:36.000Z,21.22
2023-04-16T21:22:35.000Z,22.54
2023-04-16T21:27:36.000Z,23.88
2023-04-16T21:32:35.000Z,21.99
2023-04-16T21:37:36.000Z,21.99
2023-04-16T21:42:35.000Z,21.12
2023-04-16T21:47:36.000Z,22.32
2023-04-16T21:52:35.000Z,20.67
2023-04-16T21:57:35.000Z,21.1
2023-04-16T22:02:35.000Z,23.15
2023-04-16T22:07:35.000Z,21.11
2023-04-16T22:12:35.000Z,20.14
2023-04-16T22:17:36.000Z,22.6
2023-04-16T22:22:35.000Z,20.83
2023-04-16T22:27:36.000Z,21.63
2023-04-16T22:32:36.000Z,21.62
2023-04-16T22:37:35.000Z,22.4
2023-04-16T22:42:36.000Z,19.98
2023-04-16T22:47:36.000Z,19.98
2023-04-16T22:52:36.000Z,21.04
2023-04-16T22:57:35.000Z,21.61
2023-04-16T23:02:35.000Z,21.13
2023-04-16T23:07:35.000Z,20.77
2023-04-16T23:12:36.000Z,21.47
2023-04-16T23:17:36.000Z,21.3
2023-04-16T23:22:36.000Z,21.8
2023-04-16T23:27:35.000Z,22.75
2023-04-16T23:32:36.000Z,23.22
2023-04-16T23:37:36.000Z,21.97
2023-04-16T23:42:35.000Z,25.46
2023-04-16T23:47:36.000Z,22.84
2023-04-16T23:52:35.000Z,22.93
2023-04-16T23:57:36.000Z,23.47
